KTPL/TPL METAR and TAF weather

Enter ICAO airport designator
Station Type Date Time Source
KTPL METAR 2019/08/22 03:51 UTC NOAA

KTPL 220351Z AUTO 16013KT 10SM CLR 30/20 A2997 RMK AO2 SLP135 T03000200


Station Type Date Time Source
KTPL Decoded METAR 2019/08/22 03:51 UTC NOAA

Station name not available
Aug 21, 2019 - 11:51 PM EDT / 2019.08.22 0351 UTC
Wind: from the SSE (160 degrees) at 15 MPH (13 KT):0
Visibility: 10 mile(s):0
Sky conditions: clear
Temperature: 86.0 F (30.0 C)
Dew Point: 68.0 F (20.0 C)
Relative Humidity: 55%
Pressure (altimeter): 29.97 in. Hg (1014 hPa)
ob: KTPL 220351Z AUTO 16013KT 10SM CLR 30/20 A2997 RMK AO2 SLP135 T03000200
cycle: 4

Station Type Date Time Source
KTPL TAF UTC NOAA

Error!

Example: see airport list